Time;durP1;ratioP1;P1;durP2;ratioP2;P2;SDS_P1;SDS_P2;PMS_P1;PMS_P2;Temp;Humidity;BMP_temperature;BMP_pressure;BME280_temperature;BME280_humidity;BME280_pressure;Samples;Min_cycle;Max_cycle;Signal;HPM_P1;HPM_P2
2021/12/20 00:02:15;;;;;;;;;;;;;;;1.03;100.00;101830.38;103426;1336;58302;-78
2021/12/20 00:04:42;;;;;;;;;;;;;;;0.99;100.00;101833.74;103408;1336;58243;-77
2021/12/20 00:07:09;;;;;;;;;;;;;;;0.93;100.00;101830.59;103414;1337;61182;-77
2021/12/20 00:09:35;;;;;;;;;;;;;;;0.87;100.00;101830.95;103441;1336;58401;-78
2021/12/20 00:12:02;;;;;;;;;;;;;;;0.80;100.00;101827.45;103531;1336;58461;-80
2021/12/20 00:14:29;;;;;;;;;;;;;;;0.76;100.00;101832.36;103558;1334;71524;-79
2021/12/20 00:16:55;;;;;;;;;;;;;;;0.70;100.00;101832.73;103452;1341;58357;-79
2021/12/20 00:19:23;;;;;;;;;;;;;;;0.67;100.00;101833.23;102926;1342;58357;-79
2021/12/20 00:21:49;;;;;;;;;;;;;;;0.63;100.00;101830.48;103375;1336;61186;-79
2021/12/20 00:24:18;;;;;;;;;;;;;;;0.59;100.00;101832.92;103444;1342;74331;-80
2021/12/20 00:26:45;;;;;;;;;;;;;;;0.56;100.00;101827.72;103409;1340;71439;-78
2021/12/20 00:29:11;;;;;;;;;;;;;;;0.52;100.00;101829.34;103550;1340;58912;-78
2021/12/20 00:31:37;;;;;;;;;;;;;;;0.50;100.00;101838.15;103406;1342;58417;-79
2021/12/20 00:34:04;;;;;;;;;;;;;;;0.47;100.00;101838.47;103455;1323;58374;-78
2021/12/20 00:36:30;;;;;;;;;;;;;;;0.44;100.00;101838.10;103529;1340;58242;-77
2021/12/20 00:41:42;;;;;;;;;;;;;;;0.36;100.00;101840.77;103433;1337;72720;-79
2021/12/20 00:44:09;;;;;;;;;;;;;;;0.31;100.00;101832.84;103046;1338;61022;-77
2021/12/20 00:46:47;;;;;;;;;;;;;;;0.28;100.00;101830.74;103177;1323;58776;-77
2021/12/20 00:49:13;;;;;;;;;;;;;;;0.28;100.00;101829.39;103423;1323;77677;-78
2021/12/20 00:51:40;;;;;;;;;;;;;;;0.27;100.00;101835.84;103389;1336;58474;-77
2021/12/20 00:54:06;;;;;;;;;;;;;;;0.26;100.00;101839.05;103396;1337;58552;-80
2021/12/20 00:56:33;;;;;;;;;;;;;;;0.25;100.00;101842.56;103323;1336;58381;-78
2021/12/20 00:58:59;;;;;;;;;;;;;;;0.25;100.00;101847.27;103379;1336;58407;-78
2021/12/20 01:01:26;;;;;;;;;;;;;;;0.24;100.00;101851.14;103373;1335;73934;-78
2021/12/20 01:03:53;;;;;;;;;;;;;;;0.23;100.00;101857.46;103416;1336;71674;-78
2021/12/20 01:06:20;;;;;;;;;;;;;;;0.23;100.00;101861.83;103386;1336;72620;-78
2021/12/20 01:08:48;;;;;;;;;;;;;;;0.21;100.00;101859.48;103356;1336;58285;-79
2021/12/20 01:11:20;;;;;;;;;;;;;;;0.19;100.00;101859.95;102918;1348;60256;-79
2021/12/20 01:13:47;;;;;;;;;;;;;;;0.17;100.00;101858.64;103417;1336;74227;-78
2021/12/20 01:16:14;;;;;;;;;;;;;;;0.15;100.00;101860.11;103422;1335;71442;-79
2021/12/20 01:18:41;;;;;;;;;;;;;;;0.14;100.00;101863.85;103415;1336;72677;-77
2021/12/20 01:21:08;;;;;;;;;;;;;;;0.12;100.00;101864.82;102823;1344;62849;-77
2021/12/20 01:23:36;;;;;;;;;;;;;;;0.11;100.00;101858.27;102870;1336;61454;-78
2021/12/20 01:26:03;;;;;;;;;;;;;;;0.10;100.00;101857.09;103377;1336;75171;-78
2021/12/20 01:28:30;;;;;;;;;;;;;;;0.10;100.00;101859.88;103404;1342;72495;-78
2021/12/20 01:30:56;;;;;;;;;;;;;;;0.10;100.00;101865.45;102705;1345;73242;-79
2021/12/20 01:33:23;;;;;;;;;;;;;;;0.09;100.00;101864.98;103221;1339;58209;-77
2021/12/20 01:35:49;;;;;;;;;;;;;;;0.07;100.00;101865.08;103251;1338;58421;-78
2021/12/20 01:38:16;;;;;;;;;;;;;;;0.05;100.00;101871.81;103310;1344;58367;-78
2021/12/20 01:40:42;;;;;;;;;;;;;;;0.01;100.00;101872.50;103290;1340;58547;-78
2021/12/20 01:43:11;;;;;;;;;;;;;;;-0.03;100.00;101878.95;103310;1339;58443;-78
2021/12/20 01:45:37;;;;;;;;;;;;;;;-0.07;100.00;101883.67;102665;1345;60793;-79
2021/12/20 01:48:10;;;;;;;;;;;;;;;-0.10;100.00;101882.96;103207;1343;58268;-78
2021/12/20 01:53:12;;;;;;;;;;;;;;;-0.17;100.00;101882.95;103335;1342;71654;-79
2021/12/20 01:55:38;;;;;;;;;;;;;;;-0.19;100.00;101883.27;103330;1342;74066;-79
2021/12/20 01:58:05;;;;;;;;;;;;;;;-0.21;100.00;101887.15;103294;1338;60287;-79
2021/12/20 02:00:32;;;;;;;;;;;;;;;-0.22;100.00;101888.77;103301;1344;58260;-79
2021/12/20 02:03:02;;;;;;;;;;;;;;;-0.22;100.00;101888.96;103302;1342;75341;-78
2021/12/20 02:08:17;;;;;;;;;;;;;;;-0.23;100.00;101884.33;103320;1342;72931;-80
2021/12/20 02:10:44;;;;;;;;;;;;;;;-0.26;100.00;101882.01;103332;1343;62642;-79
2021/12/20 02:13:12;;;;;;;;;;;;;;;-0.28;100.00;101886.10;103386;1338;60264;-79
2021/12/20 02:15:38;;;;;;;;;;;;;;;-0.31;100.00;101893.21;102939;1345;75184;-78
2021/12/20 02:18:05;;;;;;;;;;;;;;;-0.34;100.00;101889.87;103039;1339;71163;-79
2021/12/20 02:20:33;;;;;;;;;;;;;;;-0.35;100.00;101887.17;103339;1342;73002;-80
2021/12/20 02:23:00;;;;;;;;;;;;;;;-0.37;100.00;101885.36;103138;1339;62516;-79
2021/12/20 02:25:28;;;;;;;;;;;;;;;-0.40;100.00;101880.11;103337;1339;59663;-79
2021/12/20 02:27:55;;;;;;;;;;;;;;;-0.42;100.00;101879.48;103261;1338;74376;-78
2021/12/20 02:30:40;;;;;;;;;;;;;;;-0.42;100.00;101883.85;103318;1336;71415;-78
2021/12/20 02:38:42;;;;;;;;;;;;;;;-0.44;100.00;101879.77;103254;1335;61514;-78
2021/12/20 02:41:13;;;;;;;;;;;;;;;-0.45;100.00;101874.05;103321;1339;73906;-78
2021/12/20 02:43:42;;;;;;;;;;;;;;;-0.46;100.00;101875.16;103276;1343;72637;-78
2021/12/20 02:46:30;;;;;;;;;;;;;;;-0.47;100.00;101873.33;103320;1342;72997;-78
2021/12/20 02:48:57;;;;;;;;;;;;;;;-0.48;100.00;101874.56;103303;1339;61608;-79
2021/12/20 02:51:26;;;;;;;;;;;;;;;-0.48;100.00;101878.73;103284;1338;60466;-78
2021/12/20 02:53:56;;;;;;;;;;;;;;;-0.49;100.00;101880.52;103341;1343;74228;-78
2021/12/20 02:56:23;;;;;;;;;;;;;;;-0.49;100.00;101882.25;103021;1339;72499;-79
2021/12/20 02:58:50;;;;;;;;;;;;;;;-0.49;100.00;101879.50;103309;1339;74162;-78
2021/12/20 03:01:17;;;;;;;;;;;;;;;-0.51;100.00;101870.18;103175;1343;62655;-78
2021/12/20 03:03:43;;;;;;;;;;;;;;;-0.52;100.00;101870.77;103323;1339;61341;-79
2021/12/20 03:06:11;;;;;;;;;;;;;;;-0.54;100.00;101867.76;103307;1336;74116;-79
2021/12/20 03:08:38;;;;;;;;;;;;;;;-0.57;100.00;101871.88;103269;1339;71471;-79
2021/12/20 03:11:05;;;;;;;;;;;;;;;-0.60;100.00;101873.58;102831;1344;74221;-78
2021/12/20 03:13:31;;;;;;;;;;;;;;;-0.65;100.00;101875.05;103339;1339;59828;-79
2021/12/20 03:15:58;;;;;;;;;;;;;;;-0.69;100.00;101879.91;103056;1337;58721;-78
2021/12/20 03:18:24;;;;;;;;;;;;;;;-0.73;100.00;101877.52;103385;1339;75258;-79
2021/12/20 03:20:51;;;;;;;;;;;;;;;-0.75;100.00;101882.50;103246;1342;71800;-78
2021/12/20 03:23:17;;;;;;;;;;;;;;;-0.77;100.00;101884.30;103308;1343;58394;-78
2021/12/20 03:25:44;;;;;;;;;;;;;;;-0.81;100.00;101878.05;103315;1338;60746;-78
2021/12/20 03:28:11;;;;;;;;;;;;;;;-0.83;100.00;101875.72;102743;1355;61851;-79
2021/12/20 03:30:37;;;;;;;;;;;;;;;-0.85;100.00;101880.67;103119;1339;58971;-78
2021/12/20 03:33:04;;;;;;;;;;;;;;;-0.88;100.00;101883.56;103033;1338;417764;-78
2021/12/20 03:35:30;;;;;;;;;;;;;;;-0.89;100.00;101887.30;103122;1342;58141;-78
2021/12/20 03:37:57;;;;;;;;;;;;;;;-0.92;100.00;101885.00;102978;1345;58731;-78
2021/12/20 03:40:24;;;;;;;;;;;;;;;-0.95;100.00;101879.03;103318;1342;59009;-78
2021/12/20 03:42:50;;;;;;;;;;;;;;;-0.96;100.00;101880.48;103376;1339;74184;-79
2021/12/20 03:45:17;;;;;;;;;;;;;;;-0.98;100.00;101887.71;103301;1342;58050;-78
2021/12/20 03:47:43;;;;;;;;;;;;;;;-1.00;100.00;101888.49;103315;1339;58412;-79
2021/12/20 03:50:11;;;;;;;;;;;;;;;-1.02;100.00;101891.87;103191;1343;61071;-79
2021/12/20 03:52:38;;;;;;;;;;;;;;;-0.99;100.00;101893.86;103311;1345;60224;-78
2021/12/20 03:55:06;;;;;;;;;;;;;;;-0.99;100.00;101894.69;103301;1339;74976;-79
2021/12/20 03:57:33;;;;;;;;;;;;;;;-0.99;100.00;101897.65;102865;1345;72638;-79
2021/12/20 04:00:03;;;;;;;;;;;;;;;-0.99;100.00;101896.42;103297;1343;73093;-78
2021/12/20 04:02:37;;;;;;;;;;;;;;;-1.00;100.00;101898.55;103161;1343;61481;-79
2021/12/20 04:05:03;;;;;;;;;;;;;;;-0.99;100.00;101903.91;103004;1342;61491;-80
2021/12/20 04:07:30;;;;;;;;;;;;;;;-0.98;100.00;101902.98;103226;1340;75202;-79
2021/12/20 04:09:57;;;;;;;;;;;;;;;-0.98;100.00;101912.02;103294;1339;71170;-78
2021/12/20 04:12:23;;;;;;;;;;;;;;;-0.97;100.00;101911.46;102902;1344;74574;-80
2021/12/20 04:14:50;;;;;;;;;;;;;;;-0.98;100.00;101910.77;102887;1345;58351;-79
2021/12/20 04:17:16;;;;;;;;;;;;;;;-0.98;100.00;101910.44;103318;1342;58284;-79
2021/12/20 04:19:43;;;;;;;;;;;;;;;-0.97;100.00;101914.08;102753;1348;58202;-80
2021/12/20 04:22:09;;;;;;;;;;;;;;;-0.99;100.00;101915.70;103383;1339;70685;-79
2021/12/20 04:24:36;;;;;;;;;;;;;;;-0.99;100.00;101912.23;102819;1345;58251;-79
2021/12/20 04:27:02;;;;;;;;;;;;;;;-1.03;100.00;101913.11;103003;1343;58514;-79
2021/12/20 04:29:29;;;;;;;;;;;;;;;-1.02;100.00;101918.80;103369;1326;58448;-80
2021/12/20 04:31:56;;;;;;;;;;;;;;;-1.03;100.00;101919.70;103524;1341;74240;-79
2021/12/20 04:34:22;;;;;;;;;;;;;;;-1.06;100.00;101919.14;103324;1337;58402;-78
2021/12/20 04:36:50;;;;;;;;;;;;;;;-1.09;100.00;101917.73;103572;1340;58287;-79
2021/12/20 04:39:20;;;;;;;;;;;;;;;-1.11;100.00;101921.27;103556;1336;62065;-78
2021/12/20 04:41:46;;;;;;;;;;;;;;;-1.13;100.00;101920.33;103290;1336;60386;-79
2021/12/20 04:44:13;;;;;;;;;;;;;;;-1.13;100.00;101915.96;103544;1342;57973;-79
2021/12/20 04:46:39;;;;;;;;;;;;;;;-1.11;100.00;101919.54;103530;1336;58234;-78
2021/12/20 04:49:06;;;;;;;;;;;;;;;-1.10;100.00;101917.45;103130;1342;72914;-79
2021/12/20 04:51:32;;;;;;;;;;;;;;;-1.10;100.00;101917.77;103517;1337;59682;-79
2021/12/20 04:53:59;;;;;;;;;;;;;;;-1.11;100.00;101916.09;103534;1337;58270;-80
2021/12/20 04:56:26;;;;;;;;;;;;;;;-1.11;100.00;101914.19;103379;1340;75330;-80
2021/12/20 04:58:52;;;;;;;;;;;;;;;-1.09;100.00;101917.74;103546;1337;58438;-80
2021/12/20 05:01:18;;;;;;;;;;;;;;;-1.09;100.00;101911.65;103529;1341;58331;-78
2021/12/20 05:03:45;;;;;;;;;;;;;;;-1.08;100.00;101912.14;103566;1336;58544;-79
2021/12/20 05:06:11;;;;;;;;;;;;;;;-1.08;100.00;101914.19;103505;1338;59074;-79
2021/12/20 05:08:47;;;;;;;;;;;;;;;-1.07;100.00;101915.21;103574;1342;58337;-80
2021/12/20 05:11:14;;;;;;;;;;;;;;;-1.09;100.00;101911.99;103401;1337;72368;-79
2021/12/20 05:13:40;;;;;;;;;;;;;;;-1.10;100.00;101915.52;103560;1342;73150;-79
2021/12/20 05:16:06;;;;;;;;;;;;;;;-1.11;100.00;101920.61;103035;1344;58275;-79
2021/12/20 05:18:33;;;;;;;;;;;;;;;-1.13;100.00;101918.06;103555;1337;60047;-79
2021/12/20 05:21:00;;;;;;;;;;;;;;;-1.16;100.00;101919.80;103465;1336;58811;-78
2021/12/20 05:23:26;;;;;;;;;;;;;;;-1.22;100.00;101919.72;103387;1340;58415;-80
2021/12/20 05:25:53;;;;;;;;;;;;;;;-1.28;100.00;101919.61;103195;1335;72723;-79
2021/12/20 05:28:19;;;;;;;;;;;;;;;-1.33;100.00;101919.14;103446;1339;58306;-79
2021/12/20 05:30:49;;;;;;;;;;;;;;;-1.35;100.00;101929.13;103529;1336;58500;-80
2021/12/20 05:33:16;;;;;;;;;;;;;;;-1.38;100.00;101929.94;103516;1339;74195;-79
2021/12/20 05:35:42;;;;;;;;;;;;;;;-1.40;100.00;101931.23;103369;1336;71400;-79
2021/12/20 05:38:09;;;;;;;;;;;;;;;-1.40;100.00;101935.42;103566;1331;73203;-80
2021/12/20 05:40:35;;;;;;;;;;;;;;;-1.40;100.00;101934.55;103377;1335;59039;-80
2021/12/20 05:43:03;;;;;;;;;;;;;;;-1.40;100.00;101934.73;103462;1336;59910;-79
2021/12/20 05:45:29;;;;;;;;;;;;;;;-1.43;100.00;101939.70;103444;1336;74479;-78
2021/12/20 05:47:56;;;;;;;;;;;;;;;-1.44;100.00;101942.35;103404;1338;72540;-78
2021/12/20 05:50:23;;;;;;;;;;;;;;;-1.47;100.00;101945.08;103456;1336;72875;-79
2021/12/20 05:52:49;;;;;;;;;;;;;;;-1.49;100.00;101945.35;103545;1340;61203;-80
2021/12/20 05:55:18;;;;;;;;;;;;;;;-1.51;100.00;101947.70;103496;1342;61243;-79
2021/12/20 05:57:45;;;;;;;;;;;;;;;-1.53;100.00;101946.55;103569;1336;75192;-79
2021/12/20 06:00:14;;;;;;;;;;;;;;;-1.54;100.00;101951.28;103521;1336;71510;-80
2021/12/20 06:02:43;;;;;;;;;;;;;;;-1.55;100.00;101953.74;103540;1336;74339;-78
2021/12/20 06:05:10;;;;;;;;;;;;;;;-1.55;100.00;101955.99;103147;1336;61535;-79
2021/12/20 06:07:40;;;;;;;;;;;;;;;-1.54;100.00;101956.30;103507;1336;61176;-79
2021/12/20 06:10:08;;;;;;;;;;;;;;;-1.54;100.00;101959.45;103429;1335;74122;-79
2021/12/20 06:12:35;;;;;;;;;;;;;;;-1.56;100.00;101955.04;103384;1339;72401;-79
2021/12/20 06:15:02;;;;;;;;;;;;;;;-1.60;100.00;101953.65;102964;1339;72930;-79
2021/12/20 06:17:31;;;;;;;;;;;;;;;-1.63;100.00;101950.82;102949;1337;61172;-79
2021/12/20 06:19:57;;;;;;;;;;;;;;;-1.64;100.00;101955.17;103539;1336;60379;-79
2021/12/20 06:22:27;;;;;;;;;;;;;;;-1.66;100.00;101958.90;103536;1337;75281;-79
2021/12/20 06:24:53;;;;;;;;;;;;;;;-1.66;100.00;101963.77;103578;1339;71564;-79
2021/12/20 06:27:20;;;;;;;;;;;;;;;-1.66;100.00;101966.18;103408;1338;57691;-79
2021/12/20 06:29:46;;;;;;;;;;;;;;;-1.65;100.00;101968.39;103316;1343;58455;-80
2021/12/20 06:32:13;;;;;;;;;;;;;;;-1.65;100.00;101968.56;103466;1340;58361;-80
2021/12/20 06:34:39;;;;;;;;;;;;;;;-1.66;100.00;101964.45;103620;1337;58476;-80
2021/12/20 06:37:05;;;;;;;;;;;;;;;-1.68;100.00;101965.02;103417;1336;58405;-79
2021/12/20 06:39:32;;;;;;;;;;;;;;;-1.70;100.00;101971.91;103417;1342;58447;-79
2021/12/20 06:41:58;;;;;;;;;;;;;;;-1.72;100.00;101974.07;103485;1335;58455;-79
2021/12/20 06:44:25;;;;;;;;;;;;;;;-1.72;100.00;101975.11;103434;1340;57705;-81
2021/12/20 06:46:51;;;;;;;;;;;;;;;-1.72;100.00;101975.98;103368;1337;58512;-80
2021/12/20 06:49:18;;;;;;;;;;;;;;;-1.72;100.00;101975.29;103442;1340;58383;-80
2021/12/20 06:51:45;;;;;;;;;;;;;;;-1.71;100.00;101976.65;103360;1338;59615;-80
2021/12/20 06:54:16;;;;;;;;;;;;;;;-1.72;100.00;101974.23;103554;1342;58292;-80
2021/12/20 06:56:44;;;;;;;;;;;;;;;-1.73;100.00;101971.85;102944;1349;62183;-80
2021/12/20 06:59:10;;;;;;;;;;;;;;;-1.75;100.00;101971.23;103561;1336;74240;-80
2021/12/20 07:01:37;;;;;;;;;;;;;;;-1.75;100.00;101971.96;103127;1336;58377;-81
2021/12/20 07:04:07;;;;;;;;;;;;;;;-1.75;100.00;101975.58;103031;1340;75702;-81
2021/12/20 07:06:34;;;;;;;;;;;;;;;-1.75;100.00;101976.78;103541;1336;62400;-81
2021/12/20 07:09:01;;;;;;;;;;;;;;;-1.74;100.00;101982.66;103222;1339;58226;-81
2021/12/20 07:11:27;;;;;;;;;;;;;;;-1.74;100.00;101981.95;103334;1340;58487;-80
2021/12/20 07:13:54;;;;;;;;;;;;;;;-1.74;100.00;101982.46;103473;1335;59186;-79
2021/12/20 07:16:21;;;;;;;;;;;;;;;-1.73;100.00;101987.64;103459;1339;73534;-79
2021/12/20 07:18:48;;;;;;;;;;;;;;;-1.73;100.00;101989.91;103408;1339;59532;-79
2021/12/20 07:21:14;;;;;;;;;;;;;;;-1.75;100.00;101990.84;103406;1336;57632;-80
2021/12/20 07:23:41;;;;;;;;;;;;;;;-1.76;100.00;101995.58;103383;1342;58335;-80
2021/12/20 07:26:09;;;;;;;;;;;;;;;-1.79;100.00;101998.45;103334;1340;58771;-81
2021/12/20 07:28:36;;;;;;;;;;;;;;;-1.80;100.00;101999.20;103430;1337;74041;-80
2021/12/20 07:31:03;;;;;;;;;;;;;;;-1.81;100.00;101996.98;103469;1336;61701;-79
2021/12/20 07:33:29;;;;;;;;;;;;;;;-1.80;100.00;102003.38;103604;1336;58282;-80
2021/12/20 07:35:56;;;;;;;;;;;;;;;-1.79;100.00;102003.70;103475;1335;74131;-79
2021/12/20 07:38:23;;;;;;;;;;;;;;;-1.78;100.00;102009.33;103572;1342;58616;-81
2021/12/20 07:40:50;;;;;;;;;;;;;;;-1.75;100.00;102011.16;103392;1336;72943;-81
2021/12/20 07:43:17;;;;;;;;;;;;;;;-1.76;100.00;102011.86;102972;1343;59615;-80
2021/12/20 07:45:47;;;;;;;;;;;;;;;-1.77;100.00;102013.98;103516;1341;61140;-80
2021/12/20 07:48:14;;;;;;;;;;;;;;;-1.77;100.00;102008.42;103497;1337;75361;-79
2021/12/20 07:50:41;;;;;;;;;;;;;;;-1.78;100.00;102005.70;103402;1336;72546;-80
2021/12/20 07:53:07;;;;;;;;;;;;;;;-1.76;100.00;102010.13;103539;1340;73041;-80
2021/12/20 07:55:34;;;;;;;;;;;;;;;-1.75;100.00;102014.05;103426;1336;58437;-80
2021/12/20 07:58:00;;;;;;;;;;;;;;;-1.72;100.00;102017.27;103521;1337;58191;-80
2021/12/20 08:00:26;;;;;;;;;;;;;;;-1.69;100.00;102019.04;103482;1336;58406;-80
2021/12/20 08:02:54;;;;;;;;;;;;;;;-1.66;100.00;102018.90;103512;1340;58270;-79
2021/12/20 08:05:21;;;;;;;;;;;;;;;-1.61;100.00;102021.01;103547;1336;72810;-80
2021/12/20 08:07:50;;;;;;;;;;;;;;;-1.60;100.00;102017.46;103336;1340;58347;-80
2021/12/20 08:10:18;;;;;;;;;;;;;;;-1.59;100.00;102015.85;103548;1336;61401;-81
2021/12/20 08:12:45;;;;;;;;;;;;;;;-1.58;100.00;102017.55;103213;1339;75187;-80
2021/12/20 08:15:12;;;;;;;;;;;;;;;-1.55;100.00;102017.09;103419;1336;70404;-79
2021/12/20 08:17:38;;;;;;;;;;;;;;;-1.52;100.00;102016.79;103119;1336;73949;-80
2021/12/20 08:20:06;;;;;;;;;;;;;;;-1.49;100.00;102020.13;103141;1336;61263;-80
2021/12/20 08:22:33;;;;;;;;;;;;;;;-1.46;100.00;102022.23;103526;1336;60395;-80
2021/12/20 08:24:59;;;;;;;;;;;;;;;-1.42;100.00;102024.84;103496;1323;74306;-78
2021/12/20 08:27:25;;;;;;;;;;;;;;;-1.39;100.00;102023.49;103536;1340;58397;-78
2021/12/20 08:29:52;;;;;;;;;;;;;;;-1.36;100.00;102024.42;103557;1336;58432;-80
2021/12/20 08:32:19;;;;;;;;;;;;;;;-1.32;100.00;102023.77;103490;1336;59544;-80
2021/12/20 08:34:50;;;;;;;;;;;;;;;-1.31;100.00;102024.20;103546;1342;60407;-80
2021/12/20 08:37:17;;;;;;;;;;;;;;;-1.29;100.00;102021.53;103110;1336;58286;-80
2021/12/20 08:39:43;;;;;;;;;;;;;;;-1.27;100.00;102025.05;103464;1342;58304;-80
2021/12/20 08:42:09;;;;;;;;;;;;;;;-1.25;100.00;102029.35;103307;1339;58771;-79
2021/12/20 08:44:36;;;;;;;;;;;;;;;-1.21;100.00;102031.27;103474;1336;58358;-80
2021/12/20 08:47:03;;;;;;;;;;;;;;;-1.17;100.00;102036.29;103467;1337;58846;-80
2021/12/20 08:49:29;;;;;;;;;;;;;;;-1.12;100.00;102037.98;103582;1337;58596;-79
2021/12/20 08:51:56;;;;;;;;;;;;;;;-1.07;100.00;102040.56;103531;1336;58796;-79
2021/12/20 08:54:24;;;;;;;;;;;;;;;-1.00;100.00;102042.34;103449;1336;74107;-78
2021/12/20 08:56:51;;;;;;;;;;;;;;;-0.94;100.00;102045.71;103516;1336;61597;-79
2021/12/20 08:59:17;;;;;;;;;;;;;;;-0.89;100.00;102046.17;103590;1336;61125;-79
2021/12/20 09:01:44;;;;;;;;;;;;;;;-0.85;100.00;102050.33;103523;1336;74225;-79
2021/12/20 09:04:11;;;;;;;;;;;;;;;-0.79;100.00;102050.83;103087;1337;71555;-78
2021/12/20 09:06:40;;;;;;;;;;;;;;;-0.74;100.00;102056.15;103506;1336;74229;-79
2021/12/20 09:09:07;;;;;;;;;;;;;;;-0.69;100.00;102059.90;103409;1336;61695;-80
2021/12/20 09:11:34;;;;;;;;;;;;;;;-0.62;100.00;102062.73;103499;1337;61158;-85
2021/12/20 09:16:48;;;;;;;;;;;;;;;-0.46;100.00;102068.24;103574;1337;71206;-80
2021/12/20 09:19:15;;;;;;;;;;;;;;;-0.37;100.00;102070.45;103467;1326;75411;-78
2021/12/20 09:21:42;;;;;;;;;;;;;;;-0.31;100.00;102071.02;103351;1336;58844;-76
2021/12/20 09:24:09;;;;;;;;;;;;;;;-0.24;100.00;102070.38;103415;1336;58309;-76
2021/12/20 09:26:38;;;;;;;;;;;;;;;-0.20;100.00;102064.97;102841;1344;74247;-76
2021/12/20 09:29:14;;;;;;;;;;;;;;;-0.15;100.00;102068.73;103388;1342;71163;-76
2021/12/20 09:31:42;;;;;;;;;;;;;;;-0.11;100.00;102068.35;102799;1346;74043;-75
2021/12/20 09:34:28;;;;;;;;;;;;;;;;;;;;;
2021/12/20 09:36:56;;;;;;;;;;;;;;;-0.00;100.00;102065.41;102782;1342;58859;-75
2021/12/20 09:39:44;;;;;;;;;;;;;;;;;;;;;
2021/12/20 09:42:22;;;;;;;;;;;;;;;0.13;100.00;102066.39;103213;1338;71935;-76
2021/12/20 09:44:55;;;;;;;;;;;;;;;0.19;100.00;102066.80;103217;1342;73078;-76
2021/12/20 09:47:30;;;;;;;;;;;;;;;0.26;100.00;102065.42;103216;1338;62775;-76
2021/12/20 09:50:01;;;;;;;;;;;;;;;0.34;100.00;102066.05;103215;1334;61822;-76
2021/12/20 09:52:29;;;;;;;;;;;;;;;0.42;99.96;102066.01;103250;1345;74215;-77
2021/12/20 09:55:03;;;;;;;;;;;;;;;0.48;99.80;102060.85;103136;1339;58057;-77
2021/12/20 09:57:31;;;;;;;;;;;;;;;0.53;99.44;102058.85;103215;1338;71923;-77
2021/12/20 10:00:03;;;;;;;;;;;;;;;0.57;99.41;102057.41;103237;1338;59982;-75
2021/12/20 10:02:30;;;;;;;;;;;;;;;0.61;98.85;102059.66;103160;1339;61691;-77
2021/12/20 10:04:59;;;;;;;;;;;;;;;0.66;98.34;102056.98;103183;1338;74192;-76
2021/12/20 10:07:33;;;;;;;;;;;;;;;0.72;97.95;102059.98;103186;1338;71829;-76
2021/12/20 10:10:02;;;;;;;;;;;;;;;0.79;98.25;102063.63;103139;1338;72945;-76
2021/12/20 10:12:29;;;;;;;;;;;;;;;0.86;97.07;102064.85;103193;1335;61477;-77
2021/12/20 10:14:57;;;;;;;;;;;;;;;0.93;96.55;102067.33;103170;1336;61678;-77
2021/12/20 10:17:44;;;;;;;;;;;;;;;1.01;97.03;102070.17;103077;1338;75485;-76
2021/12/20 10:20:26;;;;;;;;;;;;;;;1.09;96.30;102072.39;103219;1338;71563;-76
2021/12/20 10:22:53;;;;;;;;;;;;;;;1.16;95.98;102071.83;103204;1338;73181;-77
2021/12/20 10:25:25;;;;;;;;;;;;;;;1.23;94.68;102074.27;103260;1340;62248;-77
2021/12/20 10:27:55;;;;;;;;;;;;;;;1.31;94.52;102072.13;103292;1338;61689;-75
2021/12/20 10:30:30;;;;;;;;;;;;;;;1.40;94.82;102074.42;103231;1335;74401;-75
2021/12/20 10:33:04;;;;;;;;;;;;;;;1.46;93.89;102074.84;103242;1338;71497;-75
2021/12/20 10:35:33;;;;;;;;;;;;;;;1.49;93.44;102078.65;103160;1339;73045;-76
2021/12/20 10:38:02;;;;;;;;;;;;;;;1.53;93.19;102078.10;103201;1338;61530;-76
2021/12/20 10:40:45;;;;;;;;;;;;;;;1.56;92.47;102080.20;103246;1338;61407;-78
2021/12/20 10:43:16;;;;;;;;;;;;;;;1.60;92.34;102082.95;103202;1339;75808;-77
2021/12/20 10:45:45;;;;;;;;;;;;;;;1.64;92.50;102079.61;103337;1343;71499;-78
2021/12/20 10:48:35;;;;;;;;;;;;;;;1.68;91.22;102076.75;103288;1338;73007;-77
2021/12/20 10:51:02;;;;;;;;;;;;;;;1.76;91.43;102067.80;102980;1339;62869;-77
2021/12/20 10:53:30;;;;;;;;;;;;;;;1.83;91.19;102070.69;103185;1340;60651;-78
2021/12/20 10:55:59;;;;;;;;;;;;;;;1.90;90.55;102071.88;102612;1345;74396;-77
2021/12/20 10:58:45;;;;;;;;;;;;;;;1.97;90.15;102075.16;103159;1339;73466;-77
2021/12/20 11:01:16;;;;;;;;;;;;;;;2.01;89.75;102074.23;103235;1339;72622;-77
2021/12/20 11:03:48;;;;;;;;;;;;;;;2.07;89.51;102072.02;103212;1338;61151;-77
2021/12/20 11:11:34;;;;;;;;;;;;;;;2.26;87.90;102071.63;103267;1337;72318;-77
2021/12/20 11:14:01;;;;;;;;;;;;;;;2.37;86.51;102071.00;102644;1350;73246;-77
2021/12/20 11:16:31;;;;;;;;;;;;;;;2.52;85.53;102067.05;103230;1338;59911;-77
2021/12/20 11:19:06;;;;;;;;;;;;;;;2.57;85.42;102065.69;103265;1342;60431;-76
2021/12/20 11:21:36;;;;;;;;;;;;;;;2.66;84.01;102062.88;102983;1343;74261;-76
2021/12/20 11:24:10;;;;;;;;;;;;;;;2.87;84.07;102061.46;103276;1343;71762;-76
2021/12/20 11:26:38;;;;;;;;;;;;;;;3.14;83.79;102060.87;102661;1351;74899;-76
2021/12/20 11:29:04;;;;;;;;;;;;;;;3.46;80.90;102063.13;103212;1339;61547;-76
2021/12/20 11:31:34;;;;;;;;;;;;;;;3.77;79.34;102066.96;103211;1338;60135;-76
2021/12/20 11:34:01;;;;;;;;;;;;;;;4.08;78.87;102060.80;102880;1339;323967;-76
2021/12/20 11:36:47;;;;;;;;;;;;;;;4.37;77.61;102061.00;103307;1338;71496;-76
2021/12/20 11:39:24;;;;;;;;;;;;;;;4.63;76.54;102048.83;103261;1339;73464;-76
2021/12/20 11:41:51;;;;;;;;;;;;;;;4.93;75.65;102049.95;103248;1338;61417;-76
2021/12/20 11:44:39;;;;;;;;;;;;;;;;;;;;;
2021/12/20 11:47:43;;;;;;;;;;;;;;;5.45;73.15;102051.64;103303;1339;73186;-77
2021/12/20 11:50:31;;;;;;;;;;;;;;;5.71;71.26;102055.36;103218;1338;71655;-77
2021/12/20 11:53:04;;;;;;;;;;;;;;;5.88;68.12;102055.71;103251;1339;71946;-78
2021/12/20 11:55:30;;;;;;;;;;;;;;;6.06;68.50;102054.64;103240;1341;60432;-78
2021/12/20 11:57:57;;;;;;;;;;;;;;;6.34;68.77;102053.45;103268;1339;58328;-77
2021/12/20 12:00:56;;;;;;;;;;;;;;;;;;;;;
2021/12/20 12:03:27;;;;;;;;;;;;;;;6.88;64.77;102043.95;103285;1339;71441;-77
2021/12/20 12:05:55;;;;;;;;;;;;;;;7.12;63.97;102039.30;103244;1338;73736;-78
2021/12/20 12:08:58;;;;;;;;;;;;;;;;;;;;;
2021/12/20 12:11:45;;;;;;;;;;;;;;;7.68;62.19;102049.13;103248;1339;61960;-78
2021/12/20 12:14:34;;;;;;;;;;;;;;;7.90;60.20;102048.59;103237;1335;74553;-78
2021/12/20 12:17:06;;;;;;;;;;;;;;;8.20;60.18;102049.67;103020;1345;71513;-77
2021/12/20 12:19:48;;;;;;;;;;;;;;;8.36;57.73;102049.27;102957;1345;73044;-76
2021/12/20 12:22:29;;;;;;;;;;;;;;;8.44;57.26;102045.17;103271;1339;61792;-78
2021/12/20 12:24:56;;;;;;;;;;;;;;;8.55;56.83;102045.27;103267;1335;61580;-77
2021/12/20 12:27:25;;;;;;;;;;;;;;;8.73;57.19;102039.54;102780;1345;74213;-77
2021/12/20 12:30:23;;;;;;;;;;;;;;;8.95;56.62;102043.27;103213;1341;71518;-77
2021/12/20 12:32:50;;;;;;;;;;;;;;;9.17;54.20;102044.09;103068;1338;72399;-77
2021/12/20 12:35:57;;;;;;;;;;;;;;;9.39;55.10;102043.57;103295;1343;61638;-77
2021/12/20 12:38:32;;;;;;;;;;;;;;;9.73;54.00;102038.59;102868;1345;60226;-77
2021/12/20 12:41:05;;;;;;;;;;;;;;;10.21;53.05;102039.50;102910;1344;75209;-77
2021/12/20 12:43:52;;;;;;;;;;;;;;;10.75;50.85;102035.80;103264;1338;71444;-77
2021/12/20 12:46:39;;;;;;;;;;;;;;;11.26;49.25;102038.05;103307;1339;71984;-77
2021/12/20 12:49:26;;;;;;;;;;;;;;;11.70;47.92;102041.06;103248;1338;60694;-77
2021/12/20 12:51:57;;;;;;;;;;;;;;;12.18;48.48;102039.58;102784;1345;61552;-77
2021/12/20 12:54:45;;;;;;;;;;;;;;;12.63;46.99;102040.07;103050;1339;76294;-77
2021/12/20 12:57:15;;;;;;;;;;;;;;;13.01;46.09;102034.45;103134;1338;72252;-78
2021/12/20 12:59:57;;;;;;;;;;;;;;;13.33;45.94;102033.30;103243;1339;73149;-78
2021/12/20 13:02:29;;;;;;;;;;;;;;;13.35;43.42;102033.71;102991;1339;60675;-77